sensor_id;sensor_type;location;lat;lon;timestamp;P1;durP1;ratioP1;P2;durP2;ratioP2
44000;SDS011;29660;42.892;24.710;2023-07-24T00:04:13;13.32;;;10.55;;
44000;SDS011;29660;42.892;24.710;2023-07-24T00:09:35;11.52;;;10.20;;
44000;SDS011;29660;42.892;24.710;2023-07-24T00:14:57;14.00;;;10.07;;
44000;SDS011;29660;42.892;24.710;2023-07-24T00:20:20;13.50;;;9.75;;
44000;SDS011;29660;42.892;24.710;2023-07-24T00:25:42;12.20;;;10.27;;
44000;SDS011;29660;42.892;24.710;2023-07-24T00:31:04;13.05;;;10.65;;
44000;SDS011;29660;42.892;24.710;2023-07-24T00:36:26;11.57;;;10.07;;
44000;SDS011;29660;42.892;24.710;2023-07-24T00:41:49;11.73;;;10.45;;
44000;SDS011;29660;42.892;24.710;2023-07-24T00:47:11;11.95;;;10.25;;
44000;SDS011;29660;42.892;24.710;2023-07-24T00:52:33;12.73;;;9.77;;
44000;SDS011;29660;42.892;24.710;2023-07-24T00:57:57;12.20;;;10.35;;
44000;SDS011;29660;42.892;24.710;2023-07-24T01:03:20;10.95;;;9.95;;
44000;SDS011;29660;42.892;24.710;2023-07-24T01:08:47;11.23;;;10.13;;
44000;SDS011;29660;42.892;24.710;2023-07-24T01:19:41;10.63;;;9.50;;
44000;SDS011;29660;42.892;24.710;2023-07-24T01:25:09;10.07;;;9.02;;
44000;SDS011;29660;42.892;24.710;2023-07-24T01:30:51;11.80;;;9.82;;
44000;SDS011;29660;42.892;24.710;2023-07-24T01:36:14;11.32;;;10.23;;
44000;SDS011;29660;42.892;24.710;2023-07-24T01:41:37;14.25;;;10.65;;
44000;SDS011;29660;42.892;24.710;2023-07-24T01:47:00;11.30;;;10.30;;
44000;SDS011;29660;42.892;24.710;2023-07-24T01:52:23;10.80;;;9.68;;
44000;SDS011;29660;42.892;24.710;2023-07-24T01:57:45;11.30;;;10.07;;
44000;SDS011;29660;42.892;24.710;2023-07-24T02:03:07;14.32;;;10.75;;
44000;SDS011;29660;42.892;24.710;2023-07-24T02:08:30;10.60;;;8.98;;
44000;SDS011;29660;42.892;24.710;2023-07-24T02:13:52;12.75;;;9.90;;
44000;SDS011;29660;42.892;24.710;2023-07-24T02:19:14;11.32;;;9.98;;
44000;SDS011;29660;42.892;24.710;2023-07-24T02:24:36;11.05;;;9.48;;
44000;SDS011;29660;42.892;24.710;2023-07-24T02:29:58;10.82;;;8.88;;
44000;SDS011;29660;42.892;24.710;2023-07-24T02:35:20;10.60;;;8.93;;
44000;SDS011;29660;42.892;24.710;2023-07-24T02:40:43;11.70;;;9.63;;
44000;SDS011;29660;42.892;24.710;2023-07-24T02:46:06;11.25;;;10.13;;
44000;SDS011;29660;42.892;24.710;2023-07-24T02:51:28;13.30;;;11.32;;
44000;SDS011;29660;42.892;24.710;2023-07-24T02:56:50;13.45;;;10.52;;
44000;SDS011;29660;42.892;24.710;2023-07-24T03:02:13;11.63;;;10.43;;
44000;SDS011;29660;42.892;24.710;2023-07-24T03:07:35;12.98;;;10.02;;
44000;SDS011;29660;42.892;24.710;2023-07-24T03:12:57;12.55;;;10.30;;
44000;SDS011;29660;42.892;24.710;2023-07-24T03:18:20;12.15;;;10.00;;
44000;SDS011;29660;42.892;24.710;2023-07-24T03:23:42;14.38;;;10.38;;
44000;SDS011;29660;42.892;24.710;2023-07-24T03:29:04;10.50;;;9.40;;
44000;SDS011;29660;42.892;24.710;2023-07-24T03:34:27;11.05;;;9.95;;
44000;SDS011;29660;42.892;24.710;2023-07-24T03:39:49;16.40;;;10.93;;
44000;SDS011;29660;42.892;24.710;2023-07-24T03:45:11;12.63;;;11.32;;
44000;SDS011;29660;42.892;24.710;2023-07-24T03:50:33;10.82;;;9.20;;
44000;SDS011;29660;42.892;24.710;2023-07-24T03:55:56;13.25;;;10.50;;
44000;SDS011;29660;42.892;24.710;2023-07-24T04:01:18;11.98;;;10.68;;
44000;SDS011;29660;42.892;24.710;2023-07-24T04:06:40;14.25;;;9.93;;
44000;SDS011;29660;42.892;24.710;2023-07-24T04:12:02;12.38;;;9.10;;
44000;SDS011;29660;42.892;24.710;2023-07-24T04:17:25;10.50;;;8.50;;
44000;SDS011;29660;42.892;24.710;2023-07-24T04:22:47;11.45;;;8.07;;
44000;SDS011;29660;42.892;24.710;2023-07-24T04:28:09;10.93;;;8.23;;
44000;SDS011;29660;42.892;24.710;2023-07-24T04:33:31;9.77;;;6.95;;
44000;SDS011;29660;42.892;24.710;2023-07-24T04:38:53;7.63;;;6.80;;
44000;SDS011;29660;42.892;24.710;2023-07-24T04:44:16;8.23;;;6.80;;
44000;SDS011;29660;42.892;24.710;2023-07-24T04:49:38;10.73;;;6.43;;
44000;SDS011;29660;42.892;24.710;2023-07-24T04:55:00;9.00;;;6.40;;
44000;SDS011;29660;42.892;24.710;2023-07-24T05:00:22;8.43;;;6.28;;
44000;SDS011;29660;42.892;24.710;2023-07-24T05:05:47;10.07;;;6.75;;
44000;SDS011;29660;42.892;24.710;2023-07-24T05:11:10;7.38;;;6.10;;
44000;SDS011;29660;42.892;24.710;2023-07-24T05:16:32;7.03;;;6.05;;
44000;SDS011;29660;42.892;24.710;2023-07-24T05:21:54;5.95;;;5.35;;
44000;SDS011;29660;42.892;24.710;2023-07-24T05:27:16;9.80;;;6.20;;
44000;SDS011;29660;42.892;24.710;2023-07-24T05:32:39;7.35;;;5.35;;
44000;SDS011;29660;42.892;24.710;2023-07-24T05:38:01;6.18;;;5.13;;
44000;SDS011;29660;42.892;24.710;2023-07-24T05:43:23;7.55;;;5.18;;
44000;SDS011;29660;42.892;24.710;2023-07-24T05:48:46;7.32;;;5.20;;
44000;SDS011;29660;42.892;24.710;2023-07-24T05:54:08;8.30;;;5.32;;
44000;SDS011;29660;42.892;24.710;2023-07-24T05:59:30;6.90;;;5.25;;
44000;SDS011;29660;42.892;24.710;2023-07-24T06:04:52;5.63;;;5.00;;
44000;SDS011;29660;42.892;24.710;2023-07-24T06:10:15;6.32;;;5.28;;
44000;SDS011;29660;42.892;24.710;2023-07-24T06:15:37;6.43;;;5.25;;
44000;SDS011;29660;42.892;24.710;2023-07-24T06:20:59;8.15;;;5.20;;
44000;SDS011;29660;42.892;24.710;2023-07-24T06:26:21;5.97;;;5.13;;
44000;SDS011;29660;42.892;24.710;2023-07-24T06:31:43;5.82;;;5.07;;
44000;SDS011;29660;42.892;24.710;2023-07-24T06:37:05;6.70;;;5.18;;
44000;SDS011;29660;42.892;24.710;2023-07-24T06:42:42;7.70;;;5.13;;
44000;SDS011;29660;42.892;24.710;2023-07-24T06:48:04;9.93;;;5.50;;
44000;SDS011;29660;42.892;24.710;2023-07-24T06:53:27;6.22;;;5.03;;
44000;SDS011;29660;42.892;24.710;2023-07-24T06:58:49;6.28;;;5.15;;
44000;SDS011;29660;42.892;24.710;2023-07-24T07:04:11;6.82;;;5.95;;
44000;SDS011;29660;42.892;24.710;2023-07-24T07:09:33;6.15;;;5.35;;
44000;SDS011;29660;42.892;24.710;2023-07-24T07:14:55;10.48;;;5.32;;
44000;SDS011;29660;42.892;24.710;2023-07-24T07:20:18;6.85;;;5.18;;
44000;SDS011;29660;42.892;24.710;2023-07-24T07:25:40;7.90;;;5.15;;
44000;SDS011;29660;42.892;24.710;2023-07-24T07:31:02;9.13;;;5.00;;
44000;SDS011;29660;42.892;24.710;2023-07-24T07:36:24;7.82;;;5.15;;
44000;SDS011;29660;42.892;24.710;2023-07-24T07:41:46;8.35;;;5.90;;
44000;SDS011;29660;42.892;24.710;2023-07-24T07:47:08;6.20;;;5.60;;
44000;SDS011;29660;42.892;24.710;2023-07-24T07:52:31;6.25;;;5.30;;
44000;SDS011;29660;42.892;24.710;2023-07-24T07:57:53;8.10;;;5.57;;
44000;SDS011;29660;42.892;24.710;2023-07-24T08:03:15;8.38;;;5.47;;
44000;SDS011;29660;42.892;24.710;2023-07-24T08:08:37;7.82;;;5.38;;
44000;SDS011;29660;42.892;24.710;2023-07-24T08:14:00;6.82;;;5.60;;
44000;SDS011;29660;42.892;24.710;2023-07-24T08:19:22;6.82;;;5.38;;
44000;SDS011;29660;42.892;24.710;2023-07-24T08:24:44;8.43;;;5.43;;
44000;SDS011;29660;42.892;24.710;2023-07-24T08:30:06;5.22;;;4.72;;
44000;SDS011;29660;42.892;24.710;2023-07-24T08:35:29;8.18;;;5.60;;
44000;SDS011;29660;42.892;24.710;2023-07-24T08:41:04;6.40;;;5.05;;
44000;SDS011;29660;42.892;24.710;2023-07-24T08:46:38;7.15;;;5.45;;
44000;SDS011;29660;42.892;24.710;2023-07-24T08:52:03;6.20;;;5.18;;
44000;SDS011;29660;42.892;24.710;2023-07-24T08:57:27;6.75;;;5.70;;
44000;SDS011;29660;42.892;24.710;2023-07-24T09:02:49;6.22;;;5.35;;
44000;SDS011;29660;42.892;24.710;2023-07-24T09:08:11;7.80;;;5.30;;
44000;SDS011;29660;42.892;24.710;2023-07-24T09:13:35;6.18;;;4.93;;
44000;SDS011;29660;42.892;24.710;2023-07-24T09:18:58;6.28;;;5.00;;
44000;SDS011;29660;42.892;24.710;2023-07-24T09:24:31;5.32;;;4.82;;
44000;SDS011;29660;42.892;24.710;2023-07-24T09:29:56;8.25;;;5.45;;
44000;SDS011;29660;42.892;24.710;2023-07-24T09:35:19;7.95;;;5.55;;
44000;SDS011;29660;42.892;24.710;2023-07-24T09:40:47;6.57;;;5.40;;
44000;SDS011;29660;42.892;24.710;2023-07-24T09:46:11;9.68;;;5.82;;
44000;SDS011;29660;42.892;24.710;2023-07-24T09:51:34;7.55;;;5.47;;
44000;SDS011;29660;42.892;24.710;2023-07-24T09:56:57;6.95;;;5.10;;
44000;SDS011;29660;42.892;24.710;2023-07-24T10:02:31;8.18;;;5.00;;
44000;SDS011;29660;42.892;24.710;2023-07-24T10:07:54;5.10;;;4.60;;
44000;SDS011;29660;42.892;24.710;2023-07-24T10:13:17;6.03;;;4.82;;
44000;SDS011;29660;42.892;24.710;2023-07-24T10:18:44;4.50;;;4.10;;
44000;SDS011;29660;42.892;24.710;2023-07-24T10:24:07;8.05;;;4.72;;
44000;SDS011;29660;42.892;24.710;2023-07-24T10:29:33;6.70;;;4.93;;
44000;SDS011;29660;42.892;24.710;2023-07-24T10:34:57;5.78;;;4.93;;
44000;SDS011;29660;42.892;24.710;2023-07-24T10:40:43;5.95;;;5.35;;
44000;SDS011;29660;42.892;24.710;2023-07-24T10:46:06;6.15;;;5.38;;
44000;SDS011;29660;42.892;24.710;2023-07-24T10:51:29;7.10;;;5.60;;
44000;SDS011;29660;42.892;24.710;2023-07-24T10:56:58;6.95;;;6.13;;
44000;SDS011;29660;42.892;24.710;2023-07-24T11:02:22;8.25;;;6.55;;
44000;SDS011;29660;42.892;24.710;2023-07-24T11:07:44;7.78;;;6.97;;
44000;SDS011;29660;42.892;24.710;2023-07-24T11:13:09;9.60;;;7.15;;
44000;SDS011;29660;42.892;24.710;2023-07-24T11:18:32;9.60;;;7.38;;
44000;SDS011;29660;42.892;24.710;2023-07-24T11:24:08;10.48;;;8.32;;
44000;SDS011;29660;42.892;24.710;2023-07-24T11:29:32;10.18;;;8.35;;
44000;SDS011;29660;42.892;24.710;2023-07-24T11:34:55;9.00;;;7.75;;
44000;SDS011;29660;42.892;24.710;2023-07-24T11:40:18;9.25;;;8.02;;
44000;SDS011;29660;42.892;24.710;2023-07-24T11:45:42;9.43;;;8.10;;
44000;SDS011;29660;42.892;24.710;2023-07-24T11:51:05;9.70;;;8.35;;
44000;SDS011;29660;42.892;24.710;2023-07-24T11:56:27;9.77;;;8.52;;
44000;SDS011;29660;42.892;24.710;2023-07-24T12:01:51;9.25;;;8.20;;
44000;SDS011;29660;42.892;24.710;2023-07-24T12:07:13;9.93;;;8.43;;
44000;SDS011;29660;42.892;24.710;2023-07-24T12:12:46;10.60;;;8.85;;
44000;SDS011;29660;42.892;24.710;2023-07-24T12:18:08;9.88;;;8.88;;
44000;SDS011;29660;42.892;24.710;2023-07-24T12:23:31;9.98;;;8.80;;
44000;SDS011;29660;42.892;24.710;2023-07-24T12:28:53;11.60;;;10.10;;
44000;SDS011;29660;42.892;24.710;2023-07-24T12:34:15;10.82;;;8.75;;
44000;SDS011;29660;42.892;24.710;2023-07-24T12:39:37;9.75;;;8.75;;
44000;SDS011;29660;42.892;24.710;2023-07-24T12:44:59;10.23;;;8.80;;
44000;SDS011;29660;42.892;24.710;2023-07-24T12:50:24;11.48;;;9.43;;
44000;SDS011;29660;42.892;24.710;2023-07-24T12:55:46;9.82;;;8.75;;
44000;SDS011;29660;42.892;24.710;2023-07-24T13:01:08;11.93;;;9.35;;
44000;SDS011;29660;42.892;24.710;2023-07-24T13:06:30;11.15;;;8.63;;
44000;SDS011;29660;42.892;24.710;2023-07-24T13:11:53;14.05;;;9.52;;
44000;SDS011;29660;42.892;24.710;2023-07-24T13:17:16;12.10;;;9.52;;
44000;SDS011;29660;42.892;24.710;2023-07-24T13:22:38;10.55;;;9.18;;
44000;SDS011;29660;42.892;24.710;2023-07-24T13:28:00;10.18;;;9.20;;
44000;SDS011;29660;42.892;24.710;2023-07-24T13:33:23;12.65;;;9.32;;
44000;SDS011;29660;42.892;24.710;2023-07-24T13:38:45;13.52;;;8.55;;
44000;SDS011;29660;42.892;24.710;2023-07-24T13:44:07;11.45;;;8.82;;
44000;SDS011;29660;42.892;24.710;2023-07-24T13:49:29;13.45;;;9.18;;
44000;SDS011;29660;42.892;24.710;2023-07-24T13:54:52;12.65;;;9.05;;
44000;SDS011;29660;42.892;24.710;2023-07-24T14:00:14;10.23;;;8.90;;
44000;SDS011;29660;42.892;24.710;2023-07-24T14:05:36;10.20;;;9.07;;
44000;SDS011;29660;42.892;24.710;2023-07-24T14:10:58;9.95;;;8.93;;
44000;SDS011;29660;42.892;24.710;2023-07-24T14:16:21;9.93;;;8.80;;
44000;SDS011;29660;42.892;24.710;2023-07-24T14:21:44;9.63;;;8.60;;
44000;SDS011;29660;42.892;24.710;2023-07-24T14:27:06;11.07;;;9.20;;
44000;SDS011;29660;42.892;24.710;2023-07-24T14:32:28;13.27;;;9.77;;
44000;SDS011;29660;42.892;24.710;2023-07-24T14:37:51;9.80;;;8.68;;
44000;SDS011;29660;42.892;24.710;2023-07-24T14:43:14;11.40;;;9.15;;
44000;SDS011;29660;42.892;24.710;2023-07-24T14:48:36;11.40;;;9.02;;
44000;SDS011;29660;42.892;24.710;2023-07-24T14:53:58;13.80;;;12.32;;
44000;SDS011;29660;42.892;24.710;2023-07-24T14:59:20;11.88;;;9.52;;
44000;SDS011;29660;42.892;24.710;2023-07-24T15:04:43;13.32;;;9.13;;
44000;SDS011;29660;42.892;24.710;2023-07-24T15:10:05;11.48;;;9.52;;
44000;SDS011;29660;42.892;24.710;2023-07-24T15:15:27;16.95;;;9.60;;
44000;SDS011;29660;42.892;24.710;2023-07-24T15:20:50;11.43;;;9.15;;
44000;SDS011;29660;42.892;24.710;2023-07-24T15:26:12;10.75;;;8.82;;
44000;SDS011;29660;42.892;24.710;2023-07-24T15:31:34;12.07;;;9.45;;
44000;SDS011;29660;42.892;24.710;2023-07-24T15:36:58;11.95;;;9.25;;
44000;SDS011;29660;42.892;24.710;2023-07-24T15:42:20;12.13;;;9.60;;
44000;SDS011;29660;42.892;24.710;2023-07-24T15:47:44;10.90;;;9.07;;
44000;SDS011;29660;42.892;24.710;2023-07-24T15:53:06;12.15;;;9.90;;
44000;SDS011;29660;42.892;24.710;2023-07-24T15:58:28;18.05;;;10.52;;
44000;SDS011;29660;42.892;24.710;2023-07-24T16:03:50;11.70;;;9.95;;
44000;SDS011;29660;42.892;24.710;2023-07-24T16:09:13;13.23;;;10.57;;
44000;SDS011;29660;42.892;24.710;2023-07-24T16:14:35;13.73;;;10.70;;
44000;SDS011;29660;42.892;24.710;2023-07-24T16:19:57;27.98;;;23.20;;
44000;SDS011;29660;42.892;24.710;2023-07-24T16:25:19;15.85;;;11.43;;
44000;SDS011;29660;42.892;24.710;2023-07-24T16:30:41;15.50;;;11.63;;
44000;SDS011;29660;42.892;24.710;2023-07-24T16:36:04;13.00;;;11.00;;
44000;SDS011;29660;42.892;24.710;2023-07-24T16:41:26;14.07;;;10.95;;
44000;SDS011;29660;42.892;24.710;2023-07-24T16:46:48;14.77;;;11.40;;
44000;SDS011;29660;42.892;24.710;2023-07-24T16:52:30;18.63;;;14.50;;
44000;SDS011;29660;42.892;24.710;2023-07-24T16:57:52;14.77;;;10.73;;
44000;SDS011;29660;42.892;24.710;2023-07-24T17:03:14;16.77;;;11.35;;
44000;SDS011;29660;42.892;24.710;2023-07-24T17:08:37;17.42;;;14.05;;
44000;SDS011;29660;42.892;24.710;2023-07-24T17:13:59;20.65;;;17.33;;
44000;SDS011;29660;42.892;24.710;2023-07-24T17:19:22;20.98;;;18.63;;
44000;SDS011;29660;42.892;24.710;2023-07-24T17:24:44;16.70;;;12.25;;
44000;SDS011;29660;42.892;24.710;2023-07-24T17:30:06;18.60;;;13.38;;
44000;SDS011;29660;42.892;24.710;2023-07-24T17:35:29;13.48;;;11.48;;
44000;SDS011;29660;42.892;24.710;2023-07-24T17:40:53;13.95;;;11.43;;
44000;SDS011;29660;42.892;24.710;2023-07-24T17:46:17;13.65;;;11.20;;
44000;SDS011;29660;42.892;24.710;2023-07-24T17:51:39;14.32;;;11.80;;
44000;SDS011;29660;42.892;24.710;2023-07-24T17:57:01;16.95;;;12.45;;
44000;SDS011;29660;42.892;24.710;2023-07-24T18:02:24;14.95;;;11.98;;
44000;SDS011;29660;42.892;24.710;2023-07-24T18:07:46;13.32;;;11.93;;
44000;SDS011;29660;42.892;24.710;2023-07-24T18:13:10;15.52;;;12.38;;
44000;SDS011;29660;42.892;24.710;2023-07-24T18:18:32;15.70;;;12.32;;
44000;SDS011;29660;42.892;24.710;2023-07-24T18:23:55;15.77;;;11.85;;
44000;SDS011;29660;42.892;24.710;2023-07-24T18:29:18;15.68;;;11.15;;
44000;SDS011;29660;42.892;24.710;2023-07-24T18:34:40;16.52;;;12.15;;
44000;SDS011;29660;42.892;24.710;2023-07-24T18:40:03;15.00;;;12.80;;
44000;SDS011;29660;42.892;24.710;2023-07-24T18:45:25;16.58;;;13.27;;
44000;SDS011;29660;42.892;24.710;2023-07-24T18:50:48;15.30;;;11.77;;
44000;SDS011;29660;42.892;24.710;2023-07-24T18:56:10;15.35;;;12.52;;
44000;SDS011;29660;42.892;24.710;2023-07-24T19:01:33;16.25;;;12.35;;
44000;SDS011;29660;42.892;24.710;2023-07-24T19:06:55;17.90;;;13.45;;
44000;SDS011;29660;42.892;24.710;2023-07-24T19:12:17;17.00;;;11.85;;
44000;SDS011;29660;42.892;24.710;2023-07-24T19:17:40;21.13;;;13.63;;
44000;SDS011;29660;42.892;24.710;2023-07-24T19:23:04;16.08;;;13.10;;
44000;SDS011;29660;42.892;24.710;2023-07-24T19:28:26;15.75;;;12.90;;
44000;SDS011;29660;42.892;24.710;2023-07-24T19:33:48;14.07;;;12.05;;
44000;SDS011;29660;42.892;24.710;2023-07-24T19:39:10;15.82;;;12.18;;
44000;SDS011;29660;42.892;24.710;2023-07-24T19:44:33;15.27;;;12.45;;
44000;SDS011;29660;42.892;24.710;2023-07-24T19:49:55;14.75;;;12.38;;
44000;SDS011;29660;42.892;24.710;2023-07-24T19:55:17;15.55;;;11.98;;
44000;SDS011;29660;42.892;24.710;2023-07-24T20:00:49;18.65;;;13.13;;
44000;SDS011;29660;42.892;24.710;2023-07-24T20:06:12;14.85;;;11.90;;
44000;SDS011;29660;42.892;24.710;2023-07-24T20:11:34;17.90;;;13.10;;
44000;SDS011;29660;42.892;24.710;2023-07-24T20:16:57;16.92;;;12.93;;
44000;SDS011;29660;42.892;24.710;2023-07-24T20:22:19;16.92;;;12.63;;
44000;SDS011;29660;42.892;24.710;2023-07-24T20:27:41;14.23;;;12.55;;
44000;SDS011;29660;42.892;24.710;2023-07-24T20:33:03;19.35;;;13.82;;
44000;SDS011;29660;42.892;24.710;2023-07-24T20:38:26;16.88;;;12.80;;
44000;SDS011;29660;42.892;24.710;2023-07-24T20:43:51;16.25;;;11.98;;
44000;SDS011;29660;42.892;24.710;2023-07-24T20:49:13;15.13;;;12.15;;
44000;SDS011;29660;42.892;24.710;2023-07-24T20:54:35;15.05;;;12.35;;
44000;SDS011;29660;42.892;24.710;2023-07-24T20:59:58;16.25;;;13.70;;
44000;SDS011;29660;42.892;24.710;2023-07-24T21:05:20;16.92;;;12.52;;
44000;SDS011;29660;42.892;24.710;2023-07-24T21:10:42;18.95;;;12.73;;
44000;SDS011;29660;42.892;24.710;2023-07-24T21:16:04;16.45;;;12.05;;
44000;SDS011;29660;42.892;24.710;2023-07-24T21:21:26;14.68;;;12.30;;
44000;SDS011;29660;42.892;24.710;2023-07-24T21:26:49;16.17;;;13.13;;
44000;SDS011;29660;42.892;24.710;2023-07-24T21:32:11;16.13;;;12.65;;
44000;SDS011;29660;42.892;24.710;2023-07-24T21:37:33;17.70;;;12.93;;
44000;SDS011;29660;42.892;24.710;2023-07-24T21:42:55;14.25;;;11.77;;
44000;SDS011;29660;42.892;24.710;2023-07-24T21:48:17;16.80;;;13.13;;
44000;SDS011;29660;42.892;24.710;2023-07-24T21:53:40;16.33;;;12.57;;
44000;SDS011;29660;42.892;24.710;2023-07-24T21:59:02;13.70;;;12.18;;
44000;SDS011;29660;42.892;24.710;2023-07-24T22:04:24;16.42;;;13.07;;
44000;SDS011;29660;42.892;24.710;2023-07-24T22:09:46;13.80;;;12.32;;
44000;SDS011;29660;42.892;24.710;2023-07-24T22:15:09;14.60;;;12.82;;
44000;SDS011;29660;42.892;24.710;2023-07-24T22:20:31;16.05;;;12.70;;
44000;SDS011;29660;42.892;24.710;2023-07-24T22:26:01;15.80;;;12.50;;
44000;SDS011;29660;42.892;24.710;2023-07-24T22:31:24;16.20;;;13.00;;
44000;SDS011;29660;42.892;24.710;2023-07-24T22:36:46;16.90;;;12.93;;
44000;SDS011;29660;42.892;24.710;2023-07-24T22:42:08;14.70;;;13.00;;
44000;SDS011;29660;42.892;24.710;2023-07-24T22:47:30;17.42;;;12.55;;
44000;SDS011;29660;42.892;24.710;2023-07-24T22:52:54;17.05;;;12.43;;
44000;SDS011;29660;42.892;24.710;2023-07-24T22:58:16;18.33;;;13.20;;
44000;SDS011;29660;42.892;24.710;2023-07-24T23:03:38;18.73;;;12.98;;
44000;SDS011;29660;42.892;24.710;2023-07-24T23:09:00;18.25;;;13.00;;
44000;SDS011;29660;42.892;24.710;2023-07-24T23:14:22;16.80;;;13.10;;
44000;SDS011;29660;42.892;24.710;2023-07-24T23:19:45;17.73;;;12.98;;
44000;SDS011;29660;42.892;24.710;2023-07-24T23:25:07;18.60;;;13.20;;
44000;SDS011;29660;42.892;24.710;2023-07-24T23:30:29;14.52;;;12.50;;
44000;SDS011;29660;42.892;24.710;2023-07-24T23:35:51;17.17;;;12.80;;
44000;SDS011;29660;42.892;24.710;2023-07-24T23:41:14;16.05;;;12.95;;
44000;SDS011;29660;42.892;24.710;2023-07-24T23:46:36;15.90;;;12.80;;
44000;SDS011;29660;42.892;24.710;2023-07-24T23:52:00;16.05;;;12.63;;
44000;SDS011;29660;42.892;24.710;2023-07-24T23:57:22;15.52;;;13.00;;
